Terminal Aerodrome Forecast
Issued by NWS

Home | Current Version | Previous Version | Text Only | Print | Product List | Glossary On
Versions: 1 2 3 4 5 6 7 8 9 10 11 12 13 14 15 16 17 18 19 20 21 22 23 24 25 26 27 28 29
000
FTUS46 KOTX 252339
TAFCOE
TAF
KCOE 252339Z 2600/2624 23010G18KT P6SM VCSH SCT050 BKN090
     FM260200 21010KT P6SM VCSH SCT050 BKN090
     FM260800 18006KT P6SM SCT090
     FM261500 19007KT P6SM SCT150 BKN200
     FM262000 21009G17KT P6SM VCSH SCT050 BKN130
      AMD LTD TO CLD AND VIS=

USA.gov is the U.S. government's official web portal to all federal, state and local government web resources and services.